Time;durP1;ratioP1;P1;durP2;ratioP2;P2;SDS_P1;SDS_P2;PMS_P1;PMS_P2;Temp;Humidity;BMP_temperature;BMP_pressure;BME280_temperature;BME280_humidity;BME280_pressure;Samples;Min_cycle;Max_cycle;Signal;HPM_P1;HPM_P2
2023/08/13 00:00:42;;;;;;;0.00;0.00;;;21.60;93.10;;;;;;4965269;28;20153;-84
2023/08/13 00:03:08;;;;;;;1.00;0.63;;;21.60;93.30;;;;;;4964372;28;20513;-85
2023/08/13 00:05:33;;;;;;;0.10;0.10;;;21.50;93.40;;;;;;4964028;28;20059;-86
2023/08/13 00:07:59;;;;;;;0.10;0.10;;;21.50;93.50;;;;;;4965893;28;20031;-86
2023/08/13 00:10:25;;;;;;;0.00;0.00;;;21.50;93.50;;;;;;4965674;28;20031;-85
2023/08/13 00:12:50;;;;;;;0.03;0.03;;;21.50;93.60;;;;;;4965744;28;20113;-85
2023/08/13 00:15:16;;;;;;;0.07;0.07;;;21.50;93.60;;;;;;4964585;28;20031;-85
2023/08/13 00:17:42;;;;;;;0.00;0.00;;;21.50;93.50;;;;;;4965537;28;20035;-85
2023/08/13 00:20:09;;;;;;;0.07;0.07;;;21.50;93.40;;;;;;4966050;28;20078;-84
2023/08/13 00:22:34;;;;;;;0.10;0.10;;;21.50;93.60;;;;;;4962955;28;20035;-85
2023/08/13 00:25:00;;;;;;;0.03;0.03;;;21.40;93.60;;;;;;4965617;28;20054;-85
2023/08/13 00:27:26;;;;;;;0.67;0.30;;;21.40;93.70;;;;;;4965458;28;20100;-85
2023/08/13 00:29:51;;;;;;;0.20;0.10;;;21.40;93.90;;;;;;4972646;28;20050;-85
2023/08/13 00:32:17;;;;;;;0.67;0.63;;;21.50;93.60;;;;;;4965263;28;20057;-85
2023/08/13 00:34:43;;;;;;;0.97;0.33;;;21.40;93.90;;;;;;4963991;28;20090;-84
2023/08/13 00:37:08;;;;;;;4.37;0.40;;;21.40;93.90;;;;;;4965490;28;20034;-84
2023/08/13 00:39:34;;;;;;;0.00;0.00;;;21.30;94.00;;;;;;4965657;28;20034;-88
2023/08/13 00:41:59;;;;;;;0.20;0.10;;;21.30;94.10;;;;;;4965220;28;20039;-84
2023/08/13 00:44:25;;;;;;;2.33;0.20;;;21.20;94.40;;;;;;4965146;28;20034;-88
2023/08/13 00:46:51;;;;;;;0.00;0.00;;;21.20;94.70;;;;;;4964520;28;20035;-85
2023/08/13 00:49:17;;;;;;;0.00;0.00;;;21.30;94.50;;;;;;4965550;28;20402;-85
2023/08/13 00:51:43;;;;;;;0.07;0.07;;;21.40;94.10;;;;;;4980036;28;20039;-83
2023/08/13 00:54:09;;;;;;;0.00;0.00;;;21.30;94.10;;;;;;4966138;28;20220;-84
2023/08/13 00:56:40;;;;;;;0.00;0.00;;;21.30;94.30;;;;;;4966477;28;20042;-85
2023/08/13 00:59:06;;;;;;;0.10;0.10;;;21.20;94.50;;;;;;4965909;28;20031;-83
2023/08/13 01:01:32;;;;;;;0.00;0.00;;;21.10;94.90;;;;;;4965485;28;20038;-84
2023/08/13 01:03:58;;;;;;;0.80;0.13;;;21.20;94.60;;;;;;4978512;28;20027;-83
2023/08/13 01:06:31;;;;;;;0.40;0.40;;;21.20;95.00;;;;;;4965016;28;20031;-83
2023/08/13 01:09:17;;;;;;;0.10;0.10;;;21.10;95.70;;;;;;4963906;28;20050;-83
2023/08/13 01:11:52;;;;;;;0.15;0.15;;;21.00;95.70;;;;;;4964249;28;20113;-82
2023/08/13 01:14:18;;;;;;;0.00;0.00;;;21.00;95.70;;;;;;4964817;28;20068;-82
2023/08/13 01:16:44;;;;;;;0.27;0.27;;;21.00;95.80;;;;;;4962971;28;20078;-83
2023/08/13 01:19:15;;;;;;;0.25;0.25;;;20.90;96.10;;;;;;4964720;28;20026;-83
2023/08/13 01:21:41;;;;;;;0.00;0.00;;;21.00;96.00;;;;;;4963501;28;20596;-82
2023/08/13 01:24:07;;;;;;;0.00;0.00;;;21.00;95.70;;;;;;4962517;28;20105;-83
2023/08/13 01:26:47;;;;;;;0.05;0.05;;;21.10;96.00;;;;;;4963249;28;20054;-84
2023/08/13 01:29:25;;;;;;;0.15;0.15;;;21.10;95.80;;;;;;4964011;28;20058;-83
2023/08/13 01:31:54;;;;;;;0.00;0.00;;;21.00;96.00;;;;;;4962924;28;20576;-83
2023/08/13 01:34:21;;;;;;;0.30;0.30;;;20.90;96.40;;;;;;4963626;28;20037;-82
2023/08/13 01:36:47;;;;;;;0.10;0.10;;;20.90;96.70;;;;;;4963542;28;20027;-85
2023/08/13 01:39:13;;;;;;;0.00;0.00;;;20.90;96.90;;;;;;4963561;28;20034;-83
2023/08/13 01:41:53;;;;;;;0.25;0.25;;;20.90;96.80;;;;;;4962481;28;20987;-84
2023/08/13 01:44:19;;;;;;;0.10;0.10;;;20.90;97.00;;;;;;4963645;28;20045;-82
2023/08/13 01:46:45;;;;;;;0.60;0.47;;;20.80;96.90;;;;;;4963046;28;20407;-83
2023/08/13 01:49:11;;;;;;;0.00;0.00;;;20.80;97.20;;;;;;4962545;28;20031;-83
2023/08/13 01:51:36;;;;;;;0.00;0.00;;;20.80;97.10;;;;;;4963704;28;20128;-82
2023/08/13 01:54:02;;;;;;;0.00;0.00;;;20.80;97.20;;;;;;4963677;28;20027;-81
2023/08/13 01:56:28;;;;;;;0.00;0.00;;;20.80;97.20;;;;;;4963950;28;20045;-81
2023/08/13 01:58:53;;;;;;;0.30;0.30;;;20.80;97.00;;;;;;4963423;28;20089;-81
2023/08/13 02:01:19;;;;;;;0.00;0.00;;;20.90;96.80;;;;;;4963950;28;20042;-84
2023/08/13 02:03:45;;;;;;;0.13;0.13;;;20.90;96.40;;;;;;4963421;28;20402;-81
2023/08/13 02:06:10;;;;;;;0.00;0.00;;;20.80;96.90;;;;;;4963732;28;20410;-82
2023/08/13 02:08:36;;;;;;;0.00;0.00;;;20.80;96.80;;;;;;4963040;28;20665;-81
2023/08/13 02:11:02;;;;;;;0.00;0.00;;;20.70;96.80;;;;;;4963158;28;20042;-82
2023/08/13 02:13:28;;;;;;;3.93;0.97;;;20.70;96.90;;;;;;4961976;28;20034;-84
2023/08/13 02:15:53;;;;;;;0.00;0.00;;;20.70;96.90;;;;;;4963377;28;20061;-81
2023/08/13 02:18:19;;;;;;;0.00;0.00;;;20.70;97.00;;;;;;4962929;28;20046;-83
2023/08/13 02:20:45;;;;;;;0.10;0.10;;;20.70;97.10;;;;;;4959689;28;20953;-84
2023/08/13 02:23:10;;;;;;;0.50;0.50;;;20.70;97.10;;;;;;4962069;28;20027;-82
2023/08/13 02:25:36;;;;;;;0.63;0.63;;;20.70;97.00;;;;;;4963284;28;20066;-80
2023/08/13 02:28:02;;;;;;;0.03;0.03;;;20.70;97.10;;;;;;4963389;28;20111;-82
2023/08/13 02:30:27;;;;;;;0.00;0.00;;;20.70;97.00;;;;;;4964127;28;20125;-80
2023/08/13 02:32:53;;;;;;;0.07;0.07;;;20.60;97.20;;;;;;4963365;28;20031;-80
2023/08/13 02:35:19;;;;;;;0.03;0.03;;;20.50;97.50;;;;;;4963768;28;20030;-83
2023/08/13 02:37:46;;;;;;;0.08;0.08;;;20.50;97.70;;;;;;4965429;28;20168;-81
2023/08/13 02:40:11;;;;;;;0.00;0.00;;;20.40;98.10;;;;;;4966694;28;20525;-81
2023/08/13 02:42:37;;;;;;;0.00;0.00;;;20.40;98.30;;;;;;4967287;28;20069;-83
2023/08/13 02:45:03;;;;;;;0.33;0.33;;;20.30;98.70;;;;;;4969196;28;20476;-83
2023/08/13 02:47:29;;;;;;;0.13;0.13;;;20.40;98.50;;;;;;4972619;28;20039;-83
2023/08/13 02:49:54;;;;;;;0.00;0.00;;;20.40;98.50;;;;;;4970073;28;20034;-85
2023/08/13 02:52:20;;;;;;;0.00;0.00;;;20.40;98.60;;;;;;4968304;28;20035;-83
2023/08/13 02:54:46;;;;;;;0.10;0.10;;;20.40;98.60;;;;;;4973442;28;20030;-83
2023/08/13 02:57:12;;;;;;;0.00;0.00;;;20.40;98.50;;;;;;4970095;28;20031;-83
2023/08/13 02:59:37;;;;;;;0.00;0.00;;;20.40;98.40;;;;;;4970692;28;20046;-86
2023/08/13 03:02:03;;;;;;;1.60;0.20;;;20.30;99.00;;;;;;4970607;28;20085;-82
2023/08/13 03:04:28;;;;;;;0.00;0.00;;;20.30;99.30;;;;;;4971027;28;20166;-83
2023/08/13 03:06:54;;;;;;;0.00;0.00;;;20.20;99.60;;;;;;4970284;28;20761;-84
2023/08/13 03:09:22;;;;;;;0.00;0.00;;;20.10;99.90;;;;;;4967185;28;20038;-82
2023/08/13 03:11:49;;;;;;;0.00;0.00;;;20.00;99.90;;;;;;4966683;28;20034;-83
2023/08/13 03:14:14;;;;;;;;;;;20.00;99.90;;;;;;4967806;28;20042;-85
2023/08/13 03:16:40;;;;;;;0.00;0.00;;;20.00;99.90;;;;;;4969001;28;19909;-83
2023/08/13 03:19:06;;;;;;;0.00;0.00;;;20.00;99.90;;;;;;4970627;28;20522;-83
2023/08/13 03:21:32;;;;;;;0.20;0.20;;;20.00;99.90;;;;;;4969819;28;20035;-84
2023/08/13 03:23:57;;;;;;;0.20;0.20;;;20.10;99.90;;;;;;4967578;28;20031;-86
2023/08/13 03:26:23;;;;;;;2.33;0.43;;;20.00;99.90;;;;;;4969872;28;20089;-83
2023/08/13 03:28:49;;;;;;;0.47;0.30;;;19.90;99.90;;;;;;4971522;28;20089;-84
2023/08/13 03:31:15;;;;;;;0.07;0.07;;;19.90;99.90;;;;;;4966300;28;20509;-82
2023/08/13 03:33:40;;;;;;;0.00;0.00;;;20.00;99.90;;;;;;4965109;28;20039;-83
2023/08/13 03:36:06;;;;;;;0.10;0.10;;;20.00;99.90;;;;;;4966887;28;20106;-82
2023/08/13 03:38:32;;;;;;;0.00;0.00;;;20.00;99.90;;;;;;4966888;28;20027;-82
2023/08/13 03:40:58;;;;;;;0.00;0.00;;;19.90;99.90;;;;;;4966948;28;20282;-85
2023/08/13 03:43:23;;;;;;;0.00;0.00;;;19.90;99.90;;;;;;4966760;28;20101;-83
2023/08/13 03:45:49;;;;;;;0.20;0.20;;;20.00;99.90;;;;;;4966264;28;20051;-84
2023/08/13 03:48:15;;;;;;;0.20;0.20;;;20.00;99.90;;;;;;4966617;28;20035;-84
2023/08/13 03:50:41;;;;;;;0.03;0.00;;;20.00;99.90;;;;;;4966914;28;20409;-84
2023/08/13 03:53:08;;;;;;;0.00;0.00;;;20.00;99.90;;;;;;4966696;28;20026;-82
2023/08/13 03:55:34;;;;;;;0.28;0.28;;;20.00;99.90;;;;;;4966470;28;20562;-85
2023/08/13 03:58:00;;;;;;;0.00;0.00;;;19.90;99.90;;;;;;4967154;28;20105;-86
2023/08/13 04:00:26;;;;;;;0.30;0.30;;;19.90;99.90;;;;;;4965351;28;20034;-83
2023/08/13 04:02:51;;;;;;;0.00;0.00;;;19.90;99.90;;;;;;4966030;28;20038;-82
2023/08/13 04:05:17;;;;;;;0.03;0.03;;;20.00;99.90;;;;;;4964797;28;20499;-82
2023/08/13 04:07:43;;;;;;;0.23;0.23;;;20.20;99.10;;;;;;4966077;28;20107;-82
2023/08/13 04:10:09;;;;;;;0.00;0.00;;;20.20;99.00;;;;;;4965769;28;20042;-84
2023/08/13 04:12:34;;;;;;;1.60;0.50;;;20.20;98.90;;;;;;4965916;28;20031;-85
2023/08/13 04:15:02;;;;;;;0.00;0.00;;;20.20;98.60;;;;;;4966113;28;20626;-84
2023/08/13 04:17:30;;;;;;;0.00;0.00;;;20.20;99.00;;;;;;4965945;28;20031;-83
2023/08/13 04:19:56;;;;;;;0.03;0.03;;;20.30;98.50;;;;;;4969712;28;20030;-83
2023/08/13 04:22:22;;;;;;;0.20;0.20;;;20.30;98.10;;;;;;4963211;28;20035;-83
2023/08/13 04:24:51;;;;;;;1.23;1.17;;;20.30;98.30;;;;;;4964429;28;20039;-83
2023/08/13 04:27:18;;;;;;;3.30;0.55;;;20.30;98.20;;;;;;4965660;28;20034;-83
2023/08/13 04:29:43;;;;;;;0.00;0.00;;;20.30;98.10;;;;;;4972182;28;20023;-83
2023/08/13 04:32:09;;;;;;;0.00;0.00;;;20.40;98.00;;;;;;4965826;28;20049;-86
2023/08/13 04:34:35;;;;;;;0.00;0.00;;;20.40;98.00;;;;;;4966051;28;20047;-86
2023/08/13 04:37:00;;;;;;;0.23;0.23;;;20.40;97.90;;;;;;4970557;28;20022;-83
2023/08/13 04:39:26;;;;;;;0.00;0.00;;;20.40;97.70;;;;;;4970672;28;20027;-85
2023/08/13 04:41:57;;;;;;;0.10;0.10;;;20.40;98.00;;;;;;4970308;28;20034;-84
2023/08/13 04:44:23;;;;;;;0.00;0.00;;;20.30;98.10;;;;;;4961392;28;20038;-83
2023/08/13 04:46:48;;;;;;;0.00;0.00;;;20.40;98.20;;;;;;4965348;28;20109;-83
2023/08/13 04:49:14;;;;;;;2.17;0.20;;;20.40;98.00;;;;;;4960887;28;20118;-86
2023/08/13 04:51:40;;;;;;;0.00;0.00;;;20.40;98.10;;;;;;4958111;28;20107;-82
2023/08/13 04:54:06;;;;;;;0.00;0.00;;;20.40;98.10;;;;;;4967466;28;20019;-82
2023/08/13 04:56:31;;;;;;;0.00;0.00;;;20.40;98.20;;;;;;4964829;28;20529;-83
2023/08/13 04:58:57;;;;;;;0.00;0.00;;;20.40;98.10;;;;;;4965252;28;20035;-82
2023/08/13 05:01:23;;;;;;;0.37;0.33;;;20.40;98.00;;;;;;4965066;28;20134;-82
2023/08/13 05:03:49;;;;;;;0.00;0.00;;;20.40;98.00;;;;;;4963917;28;20057;-82
2023/08/13 05:06:14;;;;;;;0.00;0.00;;;20.40;98.20;;;;;;4965509;28;20034;-86
2023/08/13 05:08:40;;;;;;;0.57;0.57;;;20.40;97.90;;;;;;4965076;28;20034;-84
2023/08/13 05:11:06;;;;;;;0.00;0.00;;;20.40;98.00;;;;;;4964342;28;20038;-82
2023/08/13 05:13:32;;;;;;;0.20;0.20;;;20.40;98.30;;;;;;4964377;28;20027;-81
2023/08/13 05:15:57;;;;;;;0.57;0.57;;;20.40;97.80;;;;;;4962846;28;20070;-83
2023/08/13 05:18:23;;;;;;;0.07;0.07;;;20.40;98.00;;;;;;4965028;28;20270;-82
2023/08/13 05:20:50;;;;;;;0.00;0.00;;;20.50;98.10;;;;;;4965026;28;20870;-82
2023/08/13 05:23:15;;;;;;;;;;;20.40;97.90;;;;;;4960672;28;20038;-84
2023/08/13 05:25:41;;;;;;;0.17;0.17;;;20.40;97.80;;;;;;4962807;28;19926;-82
2023/08/13 05:28:07;;;;;;;0.37;0.33;;;20.50;97.90;;;;;;4972269;28;20495;-81
2023/08/13 05:30:37;;;;;;;0.00;0.00;;;20.50;97.80;;;;;;4963893;28;20085;-81
2023/08/13 05:33:03;;;;;;;0.15;0.15;;;20.70;97.50;;;;;;4968601;28;20062;-81
2023/08/13 05:35:29;;;;;;;0.00;0.00;;;20.70;97.30;;;;;;4964660;28;20102;-83
2023/08/13 05:37:55;;;;;;;0.00;0.00;;;20.80;97.30;;;;;;4962158;28;20038;-84
2023/08/13 05:40:21;;;;;;;0.00;0.00;;;20.80;97.00;;;;;;4963861;28;20041;-84
2023/08/13 05:42:47;;;;;;;0.00;0.00;;;20.90;96.60;;;;;;4963437;28;20491;-83
2023/08/13 05:45:12;;;;;;;0.00;0.00;;;20.90;96.60;;;;;;4962790;28;20741;-81
2023/08/13 05:47:38;;;;;;;0.13;0.13;;;20.80;96.60;;;;;;4964672;28;20045;-79
2023/08/13 05:50:04;;;;;;;0.38;0.38;;;20.80;97.10;;;;;;4962948;28;20122;-80
2023/08/13 05:52:30;;;;;;;0.20;0.20;;;20.70;97.90;;;;;;4964240;28;20842;-81
2023/08/13 05:54:56;;;;;;;0.20;0.20;;;20.50;98.50;;;;;;4964204;28;20031;-81
2023/08/13 05:57:22;;;;;;;0.17;0.17;;;20.40;98.90;;;;;;4963751;28;20413;-79
2023/08/13 05:59:48;;;;;;;0.00;0.00;;;20.60;98.30;;;;;;4964553;28;20046;-80
2023/08/13 06:02:13;;;;;;;0.00;0.00;;;20.60;98.00;;;;;;4963355;28;20467;-83
2023/08/13 06:04:39;;;;;;;1.60;0.30;;;20.70;97.70;;;;;;4964154;28;20050;-81
2023/08/13 06:07:05;;;;;;;0.20;0.20;;;20.60;97.80;;;;;;4964042;28;20071;-78
2023/08/13 06:09:31;;;;;;;0.00;0.00;;;20.60;98.30;;;;;;4966929;28;20026;-81
2023/08/13 06:11:56;;;;;;;0.00;0.00;;;20.50;98.40;;;;;;4963263;28;20026;-81
2023/08/13 06:14:22;;;;;;;0.03;0.00;;;20.70;98.50;;;;;;4967852;28;20042;-80
2023/08/13 06:16:48;;;;;;;0.10;0.10;;;20.80;98.20;;;;;;4967737;28;20491;-81
2023/08/13 06:19:13;;;;;;;0.00;0.00;;;20.80;97.70;;;;;;4968429;28;20148;-80
2023/08/13 06:21:39;;;;;;;0.10;0.10;;;20.80;97.80;;;;;;4965696;28;20117;-81
2023/08/13 06:24:05;;;;;;;0.00;0.00;;;20.80;97.50;;;;;;4962203;28;20035;-79
2023/08/13 06:26:32;;;;;;;0.35;0.35;;;20.80;97.60;;;;;;4965711;28;20046;-79
2023/08/13 06:28:58;;;;;;;0.03;0.03;;;20.80;97.60;;;;;;4966880;28;20035;-79
2023/08/13 06:31:23;;;;;;;0.00;0.00;;;21.00;96.90;;;;;;4966800;28;20045;-79
2023/08/13 06:33:49;;;;;;;0.30;0.30;;;21.10;96.20;;;;;;4966925;28;20045;-79
2023/08/13 06:36:15;;;;;;;0.07;0.07;;;21.30;95.80;;;;;;4967039;28;20414;-81
2023/08/13 06:38:41;;;;;;;0.00;0.00;;;21.30;95.20;;;;;;4966000;28;20030;-80
2023/08/13 06:41:07;;;;;;;8.93;0.55;;;21.50;95.10;;;;;;4966519;28;20058;-80
2023/08/13 06:43:33;;;;;;;0.20;0.20;;;21.40;95.10;;;;;;4965448;28;20038;-78
2023/08/13 06:46:00;;;;;;;0.00;0.00;;;21.50;95.30;;;;;;4959169;28;20070;-77
2023/08/13 06:48:27;;;;;;;0.95;0.63;;;21.50;95.10;;;;;;4965926;28;20102;-78
2023/08/13 06:50:57;;;;;;;4.47;0.25;;;21.40;95.50;;;;;;4967050;28;20071;-82
2023/08/13 06:53:23;;;;;;;0.75;0.55;;;21.40;95.70;;;;;;4966275;28;20062;-85
2023/08/13 06:55:49;;;;;;;0.00;0.00;;;21.40;95.60;;;;;;4958568;28;20237;-83
2023/08/13 06:58:16;;;;;;;0.08;0.08;;;21.40;95.30;;;;;;4965950;28;20633;-83
2023/08/13 07:00:42;;;;;;;0.10;0.10;;;21.60;95.50;;;;;;4966212;28;20403;-82
2023/08/13 07:03:08;;;;;;;0.00;0.00;;;21.80;94.60;;;;;;4963401;28;20058;-83
2023/08/13 07:05:42;;;;;;;0.40;0.20;;;21.90;93.90;;;;;;4961515;28;20363;-84
2023/08/13 07:08:09;;;;;;;0.00;0.00;;;21.90;94.30;;;;;;4964306;28;20031;-84
2023/08/13 07:10:35;;;;;;;0.00;0.00;;;22.30;93.60;;;;;;4966337;28;20047;-83
2023/08/13 07:13:01;;;;;;;7.25;0.57;;;22.60;93.00;;;;;;4967509;28;20030;-83
2023/08/13 07:15:26;;;;;;;0.00;0.00;;;22.80;93.10;;;;;;4969893;28;20117;-82
2023/08/13 07:17:52;;;;;;;0.47;0.47;;;22.80;92.10;;;;;;4962230;28;20274;-84
2023/08/13 07:20:18;;;;;;;0.00;0.00;;;22.80;92.60;;;;;;4961860;28;20039;-85
2023/08/13 07:22:45;;;;;;;0.00;0.00;;;22.80;92.10;;;;;;4963060;28;20070;-84
2023/08/13 07:25:12;;;;;;;0.10;0.10;;;22.70;92.20;;;;;;4962311;28;20074;-86
2023/08/13 07:27:39;;;;;;;0.10;0.10;;;22.50;92.60;;;;;;4959122;28;20027;-83
2023/08/13 07:30:12;;;;;;;0.00;0.00;;;22.20;93.20;;;;;;4959227;28;20026;-86
2023/08/13 07:32:38;;;;;;;0.15;0.15;;;21.70;94.00;;;;;;4988653;28;20026;-83
2023/08/13 07:35:06;;;;;;;;;;;20.40;99.90;;;;;;4961170;28;20023;-88
2023/08/13 07:37:38;;;;;;;0.00;0.00;;;20.10;99.90;;;;;;4981111;28;20605;-85
2023/08/13 07:40:07;;;;;;;0.00;0.00;;;19.90;99.90;;;;;;4954172;28;20027;-87
2023/08/13 07:42:34;;;;;;;0.10;0.10;;;20.20;99.90;;;;;;4964366;28;20089;-86
2023/08/13 07:45:01;;;;;;;0.00;0.00;;;20.40;99.90;;;;;;4968236;28;20038;-86
2023/08/13 07:47:27;;;;;;;0.35;0.35;;;20.40;99.90;;;;;;4975448;28;20035;-82
2023/08/13 07:49:52;;;;;;;0.00;0.00;;;20.40;99.90;;;;;;4966107;28;20410;-83
2023/08/13 07:52:18;;;;;;;0.60;0.53;;;20.50;99.90;;;;;;4965141;28;20499;-83
2023/08/13 07:54:46;;;;;;;0.00;0.00;;;20.50;99.90;;;;;;4967201;28;20030;-82
2023/08/13 07:57:12;;;;;;;0.25;0.25;;;20.60;99.90;;;;;;4968331;28;20262;-85
2023/08/13 07:59:38;;;;;;;0.10;0.10;;;20.50;99.90;;;;;;4966224;28;20062;-88
2023/08/13 08:02:04;;;;;;;0.00;0.00;;;20.70;99.90;;;;;;4964745;28;20049;-87
2023/08/13 08:04:30;;;;;;;1.07;0.33;;;20.90;99.90;;;;;;4971106;28;20031;-89
2023/08/13 08:06:56;;;;;;;0.10;0.10;;;24.90;99.90;;;;;;4968931;28;20031;-88
2023/08/13 08:09:21;;;;;;;0.00;0.00;;;26.70;99.90;;;;;;4968606;28;20049;-88
2023/08/13 08:11:47;;;;;;;0.00;0.00;;;28.00;99.90;;;;;;4969070;28;20262;-87
2023/08/13 08:14:13;;;;;;;0.15;0.15;;;25.80;99.90;;;;;;4970053;28;20270;-86
2023/08/13 08:16:39;;;;;;;0.10;0.10;;;24.70;99.90;;;;;;4969762;28;20039;-89
2023/08/13 08:19:05;;;;;;;0.00;0.00;;;23.90;99.90;;;;;;4970263;28;20749;-86
2023/08/13 08:21:34;;;;;;;0.00;0.00;;;23.70;99.90;;;;;;4968511;28;20086;-86
2023/08/13 08:24:01;;;;;;;0.00;0.00;;;24.40;99.90;;;;;;4969521;28;20035;-87
2023/08/13 08:26:28;;;;;;;0.13;0.13;;;24.90;99.90;;;;;;4961721;28;20142;-84
2023/08/13 08:28:53;;;;;;;0.20;0.20;;;25.60;99.90;;;;;;4971920;28;20019;-84
2023/08/13 08:31:19;;;;;;;0.00;0.00;;;25.10;99.90;;;;;;4970138;28;20043;-86
2023/08/13 08:33:45;;;;;;;0.10;0.10;;;24.90;99.90;;;;;;4971331;28;20038;-84
2023/08/13 08:36:11;;;;;;;1.13;0.22;;;24.40;99.90;;;;;;4970037;28;20030;-87
2023/08/13 08:38:37;;;;;;;0.00;0.00;;;24.60;99.90;;;;;;4963161;28;20034;-84
2023/08/13 08:41:03;;;;;;;0.00;0.00;;;25.70;99.90;;;;;;4970753;28;20189;-88
2023/08/13 08:43:33;;;;;;;0.05;0.05;;;26.00;99.90;;;;;;4970804;28;20038;-84
2023/08/13 08:45:59;;;;;;;0.00;0.00;;;26.50;98.80;;;;;;4971341;28;20044;-84
2023/08/13 08:48:26;;;;;;;;;;;26.50;98.70;;;;;;4973890;28;20120;-85
2023/08/13 08:50:52;;;;;;;0.25;0.25;;;26.30;98.00;;;;;;4970007;28;20369;-83
2023/08/13 08:53:19;;;;;;;0.00;0.00;;;26.70;97.20;;;;;;4985349;28;20070;-84
2023/08/13 08:55:47;;;;;;;0.17;0.17;;;26.80;96.30;;;;;;4969725;28;20050;-86
2023/08/13 08:58:13;;;;;;;0.00;0.00;;;27.00;91.80;;;;;;4970069;28;20019;-84
2023/08/13 09:00:39;;;;;;;0.00;0.00;;;27.40;92.00;;;;;;4969133;28;20126;-85
2023/08/13 09:03:05;;;;;;;0.00;0.00;;;28.20;87.10;;;;;;4969490;28;20113;-86
2023/08/13 09:05:33;;;;;;;0.10;0.10;;;28.70;89.00;;;;;;4970748;28;20023;-88
2023/08/13 09:07:58;;;;;;;0.10;0.10;;;28.60;90.30;;;;;;4985177;28;20610;-84
2023/08/13 09:10:24;;;;;;;0.17;0.17;;;28.10;89.50;;;;;;4970005;28;20026;-84
2023/08/13 09:12:53;;;;;;;0.00;0.00;;;28.20;87.60;;;;;;4968990;28;20089;-84
2023/08/13 09:15:19;;;;;;;0.10;0.10;;;28.60;89.60;;;;;;4969204;28;20594;-85
2023/08/13 09:17:45;;;;;;;0.00;0.00;;;28.80;89.10;;;;;;4967656;28;20023;-86
2023/08/13 09:20:20;;;;;;;0.05;0.05;;;29.10;87.30;;;;;;4969687;28;20462;-85
2023/08/13 09:22:47;;;;;;;0.00;0.00;;;28.50;88.30;;;;;;4980810;28;20105;-83
2023/08/13 09:25:14;;;;;;;0.00;0.00;;;28.60;88.40;;;;;;4967958;28;20051;-87
2023/08/13 09:27:40;;;;;;;0.00;0.00;;;30.90;82.80;;;;;;4974236;28;20030;-85
2023/08/13 09:30:10;;;;;;;;;;;30.60;77.90;;;;;;4984579;28;20031;-84
2023/08/13 09:32:36;;;;;;;0.00;0.00;;;29.70;78.90;;;;;;4970086;28;19914;-86
2023/08/13 09:35:04;;;;;;;0.47;0.38;;;31.40;71.30;;;;;;4969948;28;20566;-85
2023/08/13 09:37:29;;;;;;;0.00;0.00;;;30.20;76.20;;;;;;4970323;28;20026;-85
2023/08/13 09:39:56;;;;;;;0.00;0.00;;;31.40;73.90;;;;;;4968789;28;20181;-84
2023/08/13 09:42:23;;;;;;;0.43;0.28;;;31.70;72.10;;;;;;4968833;28;20027;-84
2023/08/13 09:44:51;;;;;;;0.28;0.28;;;32.00;70.60;;;;;;4967420;28;20027;-87
2023/08/13 09:47:21;;;;;;;0.20;0.10;;;33.10;70.30;;;;;;4966963;28;20019;-84
2023/08/13 09:49:47;;;;;;;0.10;0.10;;;34.20;62.40;;;;;;4967858;28;20031;-86
2023/08/13 09:52:20;;;;;;;0.00;0.00;;;33.40;61.30;;;;;;4967645;28;20107;-87
2023/08/13 09:55:12;;;;;;;0.30;0.28;;;32.00;66.70;;;;;;4968677;28;20502;-88
2023/08/13 09:57:40;;;;;;;0.10;0.10;;;32.60;66.70;;;;;;4962984;28;20054;-87
2023/08/13 10:00:09;;;;;;;0.00;0.00;;;34.60;62.70;;;;;;4968450;28;20049;-84
2023/08/13 10:02:35;;;;;;;0.00;0.00;;;35.40;57.30;;;;;;4967202;28;20034;-84
2023/08/13 10:05:03;;;;;;;0.10;0.03;;;33.80;62.00;;;;;;4967872;28;20406;-84
2023/08/13 10:07:29;;;;;;;0.00;0.00;;;34.60;60.90;;;;;;4968237;28;20042;-84
2023/08/13 10:09:54;;;;;;;0.10;0.10;;;35.30;58.30;;;;;;4965857;28;20030;-86
2023/08/13 10:12:21;;;;;;;;;;;36.40;58.40;;;;;;4963637;28;20043;-86
2023/08/13 10:14:48;;;;;;;0.00;0.00;;;36.20;57.50;;;;;;4963378;28;19914;-84
2023/08/13 10:17:18;;;;;;;1.65;0.57;;;36.00;55.70;;;;;;4964794;28;20022;-85
2023/08/13 10:19:48;;;;;;;0.10;0.10;;;34.90;54.80;;;;;;4964571;28;20027;-85
2023/08/13 10:22:14;;;;;;;0.40;0.40;;;35.20;58.80;;;;;;4963709;28;20034;-84
2023/08/13 10:24:42;;;;;;;0.00;0.00;;;36.60;57.90;;;;;;4969825;28;20073;-85
2023/08/13 10:27:12;;;;;;;0.00;0.00;;;36.80;56.40;;;;;;4961637;28;20113;-85
2023/08/13 10:29:42;;;;;;;0.00;0.00;;;35.90;53.80;;;;;;4960018;28;20060;-86
2023/08/13 10:32:13;;;;;;;0.43;0.32;;;34.80;58.10;;;;;;4958025;28;20065;-86
2023/08/13 10:34:46;;;;;;;0.00;0.00;;;33.60;58.50;;;;;;4961432;28;20109;-86
2023/08/13 10:37:23;;;;;;;0.00;0.00;;;33.30;63.20;;;;;;4971568;28;20031;-85
2023/08/13 10:39:55;;;;;;;0.00;0.00;;;32.50;61.60;;;;;;4960356;28;20082;-89
2023/08/13 10:42:26;;;;;;;5.07;0.52;;;31.60;65.90;;;;;;4962269;28;20125;-80
2023/08/13 10:45:01;;;;;;;0.03;0.03;;;31.60;68.70;;;;;;4960661;28;20043;-81
2023/08/13 10:47:37;;;;;;;0.28;0.28;;;31.40;68.10;;;;;;4961044;28;20026;-82
2023/08/13 10:50:36;;;;;;;0.35;0.35;;;31.30;69.90;;;;;;4964398;28;20038;-81
2023/08/13 10:53:07;;;;;;;0.85;0.45;;;31.00;68.40;;;;;;4958847;28;20138;-79
2023/08/13 10:55:42;;;;;;;0.55;0.30;;;31.00;68.90;;;;;;4962226;28;20027;-79
2023/08/13 10:58:26;;;;;;;0.32;0.32;;;31.00;68.10;;;;;;4958063;28;20031;-79
2023/08/13 11:00:56;;;;;;;0.10;0.10;;;30.90;67.20;;;;;;4964496;28;20194;-78
2023/08/13 11:03:32;;;;;;;0.00;0.00;;;30.60;68.80;;;;;;4963297;28;20050;-78
2023/08/13 11:05:58;;;;;;;0.10;0.10;;;31.10;68.60;;;;;;4949752;28;20119;-78
2023/08/13 11:08:25;;;;;;;0.00;0.00;;;31.20;68.60;;;;;;4961980;28;20643;-77
2023/08/13 11:10:52;;;;;;;0.00;0.00;;;31.30;66.20;;;;;;4965212;28;20043;-77
2023/08/13 11:13:19;;;;;;;0.00;0.00;;;31.20;69.20;;;;;;4965458;28;20030;-78
2023/08/13 11:15:52;;;;;;;0.00;0.00;;;31.30;68.20;;;;;;4965088;28;20038;-78
2023/08/13 11:18:19;;;;;;;0.00;0.00;;;31.00;67.30;;;;;;4962864;28;20094;-82
2023/08/13 11:20:46;;;;;;;0.20;0.10;;;30.60;66.80;;;;;;4964190;28;20045;-80
2023/08/13 11:23:13;;;;;;;0.00;0.00;;;30.60;68.10;;;;;;4958880;28;20239;-79
2023/08/13 11:25:40;;;;;;;0.00;0.00;;;31.20;66.30;;;;;;4969214;28;20060;-78
2023/08/13 11:28:06;;;;;;;0.10;0.10;;;31.50;64.50;;;;;;4964740;28;20039;-78
2023/08/13 11:30:32;;;;;;;0.00;0.00;;;31.20;65.40;;;;;;4962759;28;20049;-78
2023/08/13 11:32:58;;;;;;;0.08;0.08;;;31.00;63.00;;;;;;4962061;28;20573;-79
2023/08/13 11:35:24;;;;;;;0.10;0.10;;;30.90;64.70;;;;;;4965514;28;20027;-78
2023/08/13 11:37:50;;;;;;;0.20;0.20;;;31.30;64.90;;;;;;4965042;28;20074;-78
2023/08/13 11:40:16;;;;;;;0.32;0.32;;;31.00;63.20;;;;;;4955918;28;20046;-78
2023/08/13 11:43:01;;;;;;;0.08;0.05;;;31.00;64.50;;;;;;4964923;28;20030;-78
2023/08/13 11:45:31;;;;;;;0.00;0.00;;;31.10;62.00;;;;;;4964919;28;20818;-78
2023/08/13 11:48:12;;;;;;;0.73;0.10;;;30.80;61.30;;;;;;4965504;28;20023;-78
2023/08/13 11:50:42;;;;;;;0.73;0.73;;;30.60;62.30;;;;;;4965405;28;20066;-78
2023/08/13 11:53:13;;;;;;;0.15;0.15;;;30.70;62.90;;;;;;4964287;28;20046;-78
2023/08/13 11:55:41;;;;;;;2.55;0.77;;;30.80;63.20;;;;;;4964420;28;20047;-78
2023/08/13 11:58:07;;;;;;;0.10;0.10;;;30.70;63.60;;;;;;4978535;28;20097;-78
2023/08/13 12:00:34;;;;;;;0.00;0.00;;;30.60;62.40;;;;;;4964954;28;20027;-78
2023/08/13 12:03:00;;;;;;;0.32;0.32;;;30.30;63.50;;;;;;4964998;28;20585;-78
2023/08/13 12:05:27;;;;;;;;;;;30.30;67.30;;;;;;4963530;28;20447;-78
2023/08/13 12:07:55;;;;;;;0.17;0.17;;;29.90;67.30;;;;;;4965145;28;19966;-78
2023/08/13 12:10:21;;;;;;;0.25;0.25;;;29.90;66.20;;;;;;4963230;28;20134;-78
2023/08/13 12:12:46;;;;;;;0.05;0.03;;;29.80;65.50;;;;;;4964209;28;20079;-78
2023/08/13 12:15:12;;;;;;;0.30;0.30;;;29.70;65.10;;;;;;4963236;28;20490;-79
2023/08/13 12:17:38;;;;;;;0.55;0.55;;;29.80;68.00;;;;;;4964779;28;20542;-78
2023/08/13 12:20:05;;;;;;;0.47;0.35;;;29.90;65.30;;;;;;4963563;28;20042;-77
2023/08/13 12:22:30;;;;;;;;;;;29.80;66.00;;;;;;4969774;28;20081;-79
2023/08/13 12:24:56;;;;;;;0.20;0.20;;;29.80;66.50;;;;;;4964188;28;19926;-79
2023/08/13 12:27:21;;;;;;;0.08;0.08;;;29.80;66.80;;;;;;4964305;28;20372;-78
2023/08/13 12:29:47;;;;;;;0.15;0.15;;;29.90;66.30;;;;;;4964862;28;20077;-78
2023/08/13 12:32:13;;;;;;;1.85;0.52;;;30.00;66.00;;;;;;4963256;28;20395;-78
2023/08/13 12:34:39;;;;;;;0.20;0.20;;;30.10;65.30;;;;;;4964753;28;20034;-78
2023/08/13 12:37:04;;;;;;;0.35;0.35;;;30.30;65.80;;;;;;4963678;28;20045;-78
2023/08/13 12:39:30;;;;;;;0.20;0.10;;;30.40;64.60;;;;;;4964750;28;20119;-78
2023/08/13 12:41:55;;;;;;;0.00;0.00;;;30.50;63.10;;;;;;4964695;28;20030;-78
2023/08/13 12:44:21;;;;;;;0.10;0.10;;;30.50;62.10;;;;;;4954180;28;20039;-78
2023/08/13 12:46:47;;;;;;;0.22;0.22;;;30.50;62.90;;;;;;4964718;28;20039;-78